sensor_id;sensor_type;location;lat;lon;timestamp;pressure;altitude;pressure_sealevel;temperature;humidity
41234;BME280;26968;42.686;23.352;2023-02-23T00:01:27;95090.47;;;8.63;nan
41234;BME280;26968;42.686;23.352;2023-02-23T00:03:56;95061.84;;;8.29;nan
41234;BME280;26968;42.686;23.352;2023-02-23T00:06:25;95112.66;;;8.51;nan
41234;BME280;26968;42.686;23.352;2023-02-23T00:08:51;95119.81;;;8.46;nan
41234;BME280;26968;42.686;23.352;2023-02-23T00:11:19;95108.69;;;8.44;nan
41234;BME280;26968;42.686;23.352;2023-02-23T00:13:47;95116.66;;;8.54;nan
41234;BME280;26968;42.686;23.352;2023-02-23T00:16:20;95003.84;;;7.67;nan
41234;BME280;26968;42.686;23.352;2023-02-23T00:18:47;95123.50;;;8.50;nan
41234;BME280;26968;42.686;23.352;2023-02-23T00:21:16;95102.25;;;8.20;nan
41234;BME280;26968;42.686;23.352;2023-02-23T00:23:55;95026.63;;;7.83;nan
41234;BME280;26968;42.686;23.352;2023-02-23T00:26:24;95131.34;;;8.30;nan
41234;BME280;26968;42.686;23.352;2023-02-23T00:28:56;95125.28;;;8.29;nan
41234;BME280;26968;42.686;23.352;2023-02-23T00:31:25;95117.13;;;8.31;nan
41234;BME280;26968;42.686;23.352;2023-02-23T00:33:56;95123.19;;;8.36;nan
41234;BME280;26968;42.686;23.352;2023-02-23T00:36:26;95125.03;;;8.31;nan
41234;BME280;26968;42.686;23.352;2023-02-23T00:38:54;95121.88;;;8.34;nan
41234;BME280;26968;42.686;23.352;2023-02-23T00:41:21;95122.34;;;8.26;nan
41234;BME280;26968;42.686;23.352;2023-02-23T00:43:55;95100.34;;;8.00;nan
41234;BME280;26968;42.686;23.352;2023-02-23T00:46:26;95126.53;;;8.11;nan
41234;BME280;26968;42.686;23.352;2023-02-23T00:48:52;95104.06;;;8.09;nan
41234;BME280;26968;42.686;23.352;2023-02-23T00:51:23;95101.69;;;8.07;nan
41234;BME280;26968;42.686;23.352;2023-02-23T00:53:55;95119.16;;;8.19;nan
41234;BME280;26968;42.686;23.352;2023-02-23T00:56:23;95029.97;;;7.63;nan
41234;BME280;26968;42.686;23.352;2023-02-23T00:58:50;95122.63;;;8.29;nan
41234;BME280;26968;42.686;23.352;2023-02-23T01:01:17;95031.84;;;7.68;nan
41234;BME280;26968;42.686;23.352;2023-02-23T01:03:43;95124.47;;;8.24;nan
41234;BME280;26968;42.686;23.352;2023-02-23T01:06:11;95101.41;;;8.09;nan
41234;BME280;26968;42.686;23.352;2023-02-23T01:08:39;95072.53;;;7.82;nan
41234;BME280;26968;42.686;23.352;2023-02-23T01:12:42;95021.16;;;7.43;57.63
41234;BME280;26968;42.686;23.352;2023-02-23T01:15:08;95100.28;;;7.85;57.91
41234;BME280;26968;42.686;23.352;2023-02-23T01:17:36;95043.94;;;7.54;57.53
41234;BME280;26968;42.686;23.352;2023-02-23T01:20:02;95094.72;;;7.86;57.91
41234;BME280;26968;42.686;23.352;2023-02-23T01:22:37;95077.81;;;7.82;57.67
41234;BME280;26968;42.686;23.352;2023-02-23T01:25:02;95082.56;;;7.80;57.72
41234;BME280;26968;42.686;23.352;2023-02-23T01:27:28;95048.22;;;7.70;57.17
41234;BME280;26968;42.686;23.352;2023-02-23T01:29:53;95093.47;;;7.99;57.28
41234;BME280;26968;42.686;23.352;2023-02-23T01:32:19;95038.41;;;7.65;57.26
41234;BME280;26968;42.686;23.352;2023-02-23T01:34:44;95069.34;;;7.80;57.39
41234;BME280;26968;42.686;23.352;2023-02-23T01:37:09;95122.56;;;8.14;57.10
41234;BME280;26968;42.686;23.352;2023-02-23T01:39:35;95076.53;;;7.85;57.42
41234;BME280;26968;42.686;23.352;2023-02-23T01:42:00;95070.66;;;7.72;57.44
41234;BME280;26968;42.686;23.352;2023-02-23T01:46:55;95111.72;;;8.05;57.27
41234;BME280;26968;42.686;23.352;2023-02-23T01:49:27;95112.25;;;8.07;56.96
41234;BME280;26968;42.686;23.352;2023-02-23T01:52:01;95064.63;;;7.77;56.58
41234;BME280;26968;42.686;23.352;2023-02-23T01:54:31;95096.34;;;7.92;56.87
41234;BME280;26968;42.686;23.352;2023-02-23T01:57:00;95040.78;;;7.62;57.14
41234;BME280;26968;42.686;23.352;2023-02-23T02:01:58;95055.06;;;7.71;57.13
41234;BME280;26968;42.686;23.352;2023-02-23T02:04:23;95091.31;;;7.91;57.09
41234;BME280;26968;42.686;23.352;2023-02-23T02:06:51;95091.31;;;7.86;56.78
41234;BME280;26968;42.686;23.352;2023-02-23T02:09:19;95105.88;;;7.98;56.87
41234;BME280;26968;42.686;23.352;2023-02-23T02:11:50;95071.19;;;7.69;56.88
41234;BME280;26968;42.686;23.352;2023-02-23T02:14:22;95092.53;;;7.68;57.15
41234;BME280;26968;42.686;23.352;2023-02-23T02:39:05;95081.94;;;7.58;56.94
41234;BME280;26968;42.686;23.352;2023-02-23T02:42:01;95109.19;;;7.73;57.21
41234;BME280;26968;42.686;23.352;2023-02-23T02:47:10;95054.34;;;7.33;57.07
41234;BME280;26968;42.686;23.352;2023-02-23T02:49:44;95102.81;;;7.64;57.07
41234;BME280;26968;42.686;23.352;2023-02-23T02:52:23;95102.78;;;7.59;57.56
41234;BME280;26968;42.686;23.352;2023-02-23T02:54:55;95069.09;;;7.24;57.66
41234;BME280;26968;42.686;23.352;2023-02-23T02:57:26;95099.34;;;7.54;57.24
41234;BME280;26968;42.686;23.352;2023-02-23T02:59:53;95035.53;;;7.15;57.54
41234;BME280;26968;42.686;23.352;2023-02-23T03:02:39;95037.28;;;6.99;57.46
41234;BME280;26968;42.686;23.352;2023-02-23T03:05:30;95102.84;;;7.22;58.47
41234;BME280;26968;42.686;23.352;2023-02-23T03:11:12;95078.31;;;7.22;58.36
41234;BME280;26968;42.686;23.352;2023-02-23T03:20:05;95113.00;;;7.46;57.78
41234;BME280;26968;42.686;23.352;2023-02-23T03:25:55;95043.84;;;6.96;57.89
41234;BME280;26968;42.686;23.352;2023-02-23T03:29:08;95114.81;;;7.40;57.96
41234;BME280;26968;42.686;23.352;2023-02-23T03:34:43;95097.50;;;7.12;58.48
41234;BME280;26968;42.686;23.352;2023-02-23T03:37:44;95121.34;;;7.27;58.40
41234;BME280;26968;42.686;23.352;2023-02-23T03:40:37;94943.03;;;6.05;58.28
41234;BME280;26968;42.686;23.352;2023-02-23T03:43:25;95073.56;;;6.87;58.14
41234;BME280;26968;42.686;23.352;2023-02-23T03:46:12;95059.31;;;6.83;57.89
41234;BME280;26968;42.686;23.352;2023-02-23T03:48:59;95110.91;;;7.06;58.02
41234;BME280;26968;42.686;23.352;2023-02-23T03:51:49;95016.81;;;6.42;58.45
41234;BME280;26968;42.686;23.352;2023-02-23T03:54:39;95132.59;;;7.18;57.84
41234;BME280;26968;42.686;23.352;2023-02-23T03:57:26;95077.03;;;6.55;58.37
41234;BME280;26968;42.686;23.352;2023-02-23T04:00:18;95137.31;;;6.79;58.84
41234;BME280;26968;42.686;23.352;2023-02-23T04:03:06;95077.50;;;6.26;59.80
41234;BME280;26968;42.686;23.352;2023-02-23T04:05:53;95136.25;;;6.80;59.66
41234;BME280;26968;42.686;23.352;2023-02-23T04:08:40;95018.16;;;6.13;58.71
41234;BME280;26968;42.686;23.352;2023-02-23T04:14:54;95146.75;;;7.02;58.72
41234;BME280;26968;42.686;23.352;2023-02-23T04:17:24;95140.38;;;6.97;58.61
41234;BME280;26968;42.686;23.352;2023-02-23T04:19:52;95142.72;;;6.94;58.53
41234;BME280;26968;42.686;23.352;2023-02-23T04:22:18;95076.22;;;6.55;58.83
41234;BME280;26968;42.686;23.352;2023-02-23T04:24:44;95060.56;;;6.43;59.08
41234;BME280;26968;42.686;23.352;2023-02-23T04:27:13;95100.59;;;6.72;58.85
41234;BME280;26968;42.686;23.352;2023-02-23T04:29:38;95079.66;;;6.55;59.12
41234;BME280;26968;42.686;23.352;2023-02-23T04:32:05;95137.69;;;6.92;58.62
41234;BME280;26968;42.686;23.352;2023-02-23T04:34:30;95101.31;;;6.63;59.21
41234;BME280;26968;42.686;23.352;2023-02-23T04:36:56;95087.75;;;6.49;59.00
41234;BME280;26968;42.686;23.352;2023-02-23T04:39:21;95130.00;;;6.59;59.73
41234;BME280;26968;42.686;23.352;2023-02-23T04:41:47;95146.16;;;6.68;59.29
41234;BME280;26968;42.686;23.352;2023-02-23T04:44:15;95124.69;;;6.54;59.62
41234;BME280;26968;42.686;23.352;2023-02-23T04:46:40;95100.53;;;6.35;59.33
41234;BME280;26968;42.686;23.352;2023-02-23T04:49:06;95123.31;;;6.46;60.21
41234;BME280;26968;42.686;23.352;2023-02-23T04:51:31;95099.94;;;6.28;59.87
41234;BME280;26968;42.686;23.352;2023-02-23T04:53:58;95062.56;;;6.04;60.23
41234;BME280;26968;42.686;23.352;2023-02-23T04:56:24;95131.75;;;6.48;59.89
41234;BME280;26968;42.686;23.352;2023-02-23T04:58:50;95148.16;;;6.55;60.10
41234;BME280;26968;42.686;23.352;2023-02-23T05:01:16;95152.13;;;6.58;60.67
41234;BME280;26968;42.686;23.352;2023-02-23T05:03:41;95122.78;;;6.49;60.02
41234;BME280;26968;42.686;23.352;2023-02-23T05:06:06;95146.06;;;6.57;59.77
41234;BME280;26968;42.686;23.352;2023-02-23T05:08:32;95142.34;;;6.53;60.18
41234;BME280;26968;42.686;23.352;2023-02-23T05:10:57;95079.94;;;6.05;59.93
41234;BME280;26968;42.686;23.352;2023-02-23T05:13:23;95149.94;;;6.50;60.57
41234;BME280;26968;42.686;23.352;2023-02-23T05:15:48;95086.59;;;6.13;60.47
41234;BME280;26968;42.686;23.352;2023-02-23T05:18:14;95071.75;;;6.02;60.28
41234;BME280;26968;42.686;23.352;2023-02-23T05:20:42;95069.28;;;5.95;59.96
41234;BME280;26968;42.686;23.352;2023-02-23T05:23:11;95084.38;;;6.00;60.62
41234;BME280;26968;42.686;23.352;2023-02-23T05:25:40;95142.66;;;6.35;60.65
41234;BME280;26968;42.686;23.352;2023-02-23T05:28:06;95124.38;;;6.24;60.35
41234;BME280;26968;42.686;23.352;2023-02-23T05:30:32;95155.47;;;6.48;60.29
41234;BME280;26968;42.686;23.352;2023-02-23T05:32:58;95145.19;;;6.47;60.78
41234;BME280;26968;42.686;23.352;2023-02-23T05:35:24;95123.41;;;6.30;60.99
41234;BME280;26968;42.686;23.352;2023-02-23T05:37:50;95170.53;;;6.53;60.55
41234;BME280;26968;42.686;23.352;2023-02-23T05:40:15;95000.53;;;5.43;60.72
41234;BME280;26968;42.686;23.352;2023-02-23T05:42:41;95144.59;;;6.40;60.75
41234;BME280;26968;42.686;23.352;2023-02-23T05:45:06;95121.94;;;6.17;60.42
41234;BME280;26968;42.686;23.352;2023-02-23T05:47:32;95140.78;;;6.31;60.78
41234;BME280;26968;42.686;23.352;2023-02-23T05:50:07;95088.03;;;5.99;60.48
41234;BME280;26968;42.686;23.352;2023-02-23T05:52:36;95134.56;;;5.93;61.70
41234;BME280;26968;42.686;23.352;2023-02-23T05:55:02;95132.78;;;5.99;61.83
41234;BME280;26968;42.686;23.352;2023-02-23T05:57:27;95165.06;;;6.33;61.07
41234;BME280;26968;42.686;23.352;2023-02-23T05:59:52;95172.69;;;6.34;61.66
41234;BME280;26968;42.686;23.352;2023-02-23T06:02:18;95147.84;;;6.25;61.11
41234;BME280;26968;42.686;23.352;2023-02-23T06:04:43;95158.59;;;6.45;60.70
41234;BME280;26968;42.686;23.352;2023-02-23T06:07:09;95112.16;;;6.12;60.95
41234;BME280;26968;42.686;23.352;2023-02-23T06:09:34;95080.94;;;5.99;60.68
41234;BME280;26968;42.686;23.352;2023-02-23T06:12:00;95167.28;;;6.46;61.07
41234;BME280;26968;42.686;23.352;2023-02-23T06:14:25;95139.44;;;6.28;61.23
41234;BME280;26968;42.686;23.352;2023-02-23T06:16:51;95125.72;;;6.26;61.05
41234;BME280;26968;42.686;23.352;2023-02-23T06:19:16;95181.72;;;6.65;60.44
41234;BME280;26968;42.686;23.352;2023-02-23T06:21:42;95213.13;;;6.72;61.08
41234;BME280;26968;42.686;23.352;2023-02-23T06:24:07;95070.28;;;5.89;61.24
41234;BME280;26968;42.686;23.352;2023-02-23T06:26:33;95065.81;;;5.68;61.58
41234;BME280;26968;42.686;23.352;2023-02-23T06:28:59;95222.53;;;6.89;61.25
41234;BME280;26968;42.686;23.352;2023-02-23T06:31:25;95220.34;;;6.81;61.56
41234;BME280;26968;42.686;23.352;2023-02-23T06:33:50;95167.69;;;6.59;61.71
41234;BME280;26968;42.686;23.352;2023-02-23T06:36:15;95077.81;;;6.02;61.77
41234;BME280;26968;42.686;23.352;2023-02-23T06:38:41;95082.69;;;6.15;61.42
41234;BME280;26968;42.686;23.352;2023-02-23T06:41:10;95136.47;;;6.46;61.14
41234;BME280;26968;42.686;23.352;2023-02-23T06:43:36;95083.69;;;6.09;61.36
41234;BME280;26968;42.686;23.352;2023-02-23T06:46:01;95185.94;;;6.66;61.50
41234;BME280;26968;42.686;23.352;2023-02-23T06:48:27;95168.00;;;6.63;61.30
41234;BME280;26968;42.686;23.352;2023-02-23T06:50:53;95156.22;;;6.71;61.50
41234;BME280;26968;42.686;23.352;2023-02-23T06:53:20;95151.69;;;6.66;61.22
41234;BME280;26968;42.686;23.352;2023-02-23T06:55:46;95130.75;;;6.54;60.77
41234;BME280;26968;42.686;23.352;2023-02-23T06:58:11;95123.91;;;6.53;60.36
41234;BME280;26968;42.686;23.352;2023-02-23T07:00:37;95115.22;;;6.58;60.29
41234;BME280;26968;42.686;23.352;2023-02-23T07:03:07;95181.97;;;6.90;60.33
41234;BME280;26968;42.686;23.352;2023-02-23T07:05:32;95226.56;;;7.24;59.91
41234;BME280;26968;42.686;23.352;2023-02-23T07:07:57;95144.38;;;6.73;59.94
41234;BME280;26968;42.686;23.352;2023-02-23T07:10:23;95161.63;;;6.86;59.50
41234;BME280;26968;42.686;23.352;2023-02-23T07:12:52;95072.09;;;6.37;59.35
41234;BME280;26968;42.686;23.352;2023-02-23T07:15:17;95225.78;;;7.23;59.82
41234;BME280;26968;42.686;23.352;2023-02-23T07:17:44;95164.09;;;6.97;59.57
41234;BME280;26968;42.686;23.352;2023-02-23T07:20:13;95127.59;;;6.84;59.39
41234;BME280;26968;42.686;23.352;2023-02-23T07:22:39;95229.94;;;7.51;59.34
41234;BME280;26968;42.686;23.352;2023-02-23T07:25:05;95228.66;;;7.54;59.30
41234;BME280;26968;42.686;23.352;2023-02-23T07:27:34;95047.94;;;6.45;58.91
41234;BME280;26968;42.686;23.352;2023-02-23T07:30:03;94903.78;;;5.45;58.89
41234;BME280;26968;42.686;23.352;2023-02-23T07:32:29;94946.34;;;5.91;58.53
41234;BME280;26968;42.686;23.352;2023-02-23T07:34:54;94869.56;;;5.40;58.50
41234;BME280;26968;42.686;23.352;2023-02-23T07:37:20;94900.84;;;5.68;58.17
41234;BME280;26968;42.686;23.352;2023-02-23T07:39:48;95225.97;;;7.86;58.61
41234;BME280;26968;42.686;23.352;2023-02-23T07:42:13;95129.50;;;7.26;58.35
41234;BME280;26968;42.686;23.352;2023-02-23T07:44:39;94896.47;;;5.79;58.18
41234;BME280;26968;42.686;23.352;2023-02-23T07:47:05;95171.41;;;7.59;58.38
41234;BME280;26968;42.686;23.352;2023-02-23T07:49:32;95206.22;;;7.98;58.02
41234;BME280;26968;42.686;23.352;2023-02-23T07:51:57;95111.41;;;7.40;58.05
41234;BME280;26968;42.686;23.352;2023-02-23T07:54:23;95101.38;;;7.42;57.96
41234;BME280;26968;42.686;23.352;2023-02-23T07:56:50;95146.31;;;7.57;57.95
41234;BME280;26968;42.686;23.352;2023-02-23T07:59:15;95188.25;;;7.95;57.89
41234;BME280;26968;42.686;23.352;2023-02-23T08:01:42;95199.19;;;8.19;57.84
41234;BME280;26968;42.686;23.352;2023-02-23T08:04:07;95076.34;;;7.49;57.55
41234;BME280;26968;42.686;23.352;2023-02-23T08:06:33;95183.63;;;8.23;58.07
41234;BME280;26968;42.686;23.352;2023-02-23T08:09:00;95173.34;;;8.26;57.35
41234;BME280;26968;42.686;23.352;2023-02-23T08:11:26;95161.72;;;8.22;57.35
41234;BME280;26968;42.686;23.352;2023-02-23T08:13:54;95170.22;;;8.39;57.64
41234;BME280;26968;42.686;23.352;2023-02-23T08:16:27;95155.06;;;8.14;57.63
41234;BME280;26968;42.686;23.352;2023-02-23T08:18:55;95132.88;;;8.16;57.69
41234;BME280;26968;42.686;23.352;2023-02-23T08:21:22;95071.25;;;7.85;57.37
41234;BME280;26968;42.686;23.352;2023-02-23T08:23:48;95099.06;;;8.12;56.86
41234;BME280;26968;42.686;23.352;2023-02-23T08:26:13;95138.81;;;8.38;56.98
41234;BME280;26968;42.686;23.352;2023-02-23T08:28:39;95160.78;;;8.59;56.74
41234;BME280;26968;42.686;23.352;2023-02-23T08:31:08;95103.84;;;8.26;56.56
41234;BME280;26968;42.686;23.352;2023-02-23T08:33:34;95196.28;;;8.93;56.22
41234;BME280;26968;42.686;23.352;2023-02-23T08:36:02;95129.81;;;8.49;56.32
41234;BME280;26968;42.686;23.352;2023-02-23T08:38:28;95030.63;;;8.06;56.26
41234;BME280;26968;42.686;23.352;2023-02-23T08:40:53;95078.53;;;8.35;55.96
41234;BME280;26968;42.686;23.352;2023-02-23T08:43:19;95147.88;;;8.93;55.61
41234;BME280;26968;42.686;23.352;2023-02-23T08:45:44;95150.00;;;9.01;55.17
41234;BME280;26968;42.686;23.352;2023-02-23T08:48:10;95094.44;;;8.70;55.24
41234;BME280;26968;42.686;23.352;2023-02-23T08:50:35;95190.25;;;9.43;55.60
41234;BME280;26968;42.686;23.352;2023-02-23T08:53:01;95114.28;;;9.03;55.03
41234;BME280;26968;42.686;23.352;2023-02-23T08:55:27;95136.25;;;9.24;55.43
41234;BME280;26968;42.686;23.352;2023-02-23T08:57:52;95062.19;;;8.88;54.79
41234;BME280;26968;42.686;23.352;2023-02-23T09:00:18;95182.28;;;9.58;54.85
41234;BME280;26968;42.686;23.352;2023-02-23T09:02:44;95146.81;;;9.39;55.49
41234;BME280;26968;42.686;23.352;2023-02-23T09:05:12;95079.38;;;9.11;55.04
41234;BME280;26968;42.686;23.352;2023-02-23T09:07:39;95094.97;;;9.28;54.88
41234;BME280;26968;42.686;23.352;2023-02-23T09:10:06;95179.81;;;9.92;55.13
41234;BME280;26968;42.686;23.352;2023-02-23T09:12:32;95113.72;;;9.47;55.54
41234;BME280;26968;42.686;23.352;2023-02-23T09:14:57;95109.72;;;9.54;55.44
41234;BME280;26968;42.686;23.352;2023-02-23T09:17:23;95032.28;;;9.08;53.88
41234;BME280;26968;42.686;23.352;2023-02-23T09:19:49;95143.84;;;9.81;54.28
41234;BME280;26968;42.686;23.352;2023-02-23T09:22:15;95173.94;;;10.16;54.40
41234;BME280;26968;42.686;23.352;2023-02-23T09:24:42;95138.75;;;9.95;53.76
41234;BME280;26968;42.686;23.352;2023-02-23T09:27:08;95151.69;;;10.12;52.91
41234;BME280;26968;42.686;23.352;2023-02-23T09:29:36;95157.50;;;10.29;52.30
41234;BME280;26968;42.686;23.352;2023-02-23T09:32:06;95180.50;;;10.43;53.13
41234;BME280;26968;42.686;23.352;2023-02-23T09:34:31;95113.00;;;10.11;53.48
41234;BME280;26968;42.686;23.352;2023-02-23T09:36:57;95114.59;;;10.22;52.90
41234;BME280;26968;42.686;23.352;2023-02-23T09:39:22;95163.72;;;10.58;52.48
41234;BME280;26968;42.686;23.352;2023-02-23T09:44:52;95144.41;;;10.48;52.51
41234;BME280;26968;42.686;23.352;2023-02-23T09:50:30;95170.66;;;10.93;52.55
41234;BME280;26968;42.686;23.352;2023-02-23T09:53:30;95171.66;;;11.02;50.99
41234;BME280;26968;42.686;23.352;2023-02-23T09:55:58;95097.63;;;10.67;51.25
41234;BME280;26968;42.686;23.352;2023-02-23T09:58:29;95173.09;;;11.23;50.95
41234;BME280;26968;42.686;23.352;2023-02-23T10:03:46;95061.91;;;10.54;50.57
41234;BME280;26968;42.686;23.352;2023-02-23T10:06:16;95134.47;;;11.07;49.73
41234;BME280;26968;42.686;23.352;2023-02-23T10:08:50;95083.94;;;10.89;49.65
41234;BME280;26968;42.686;23.352;2023-02-23T10:14:07;95153.25;;;11.50;50.24
41234;BME280;26968;42.686;23.352;2023-02-23T10:16:44;95024.84;;;10.83;51.04
41234;BME280;26968;42.686;23.352;2023-02-23T10:22:03;94947.22;;;12.75;45.43
41234;BME280;26968;42.686;23.352;2023-02-23T10:27:08;95134.63;;;16.71;39.78
41234;BME280;26968;42.686;23.352;2023-02-23T10:29:55;95137.56;;;17.99;36.79
41234;BME280;26968;42.686;23.352;2023-02-23T10:34:58;95130.22;;;19.79;33.06
41234;BME280;26968;42.686;23.352;2023-02-23T10:37:24;95135.34;;;20.29;32.65
41234;BME280;26968;42.686;23.352;2023-02-23T10:39:50;95135.34;;;20.29;32.65
41234;BME280;26968;42.686;23.352;2023-02-23T10:42:20;95002.47;;;20.62;30.13
41234;BME280;26968;42.686;23.352;2023-02-23T10:44:47;95118.59;;;21.92;29.76
41234;BME280;26968;42.686;23.352;2023-02-23T10:47:20;95092.16;;;21.98;29.38
41234;BME280;26968;42.686;23.352;2023-02-23T10:49:52;95115.34;;;22.30;28.90
41234;BME280;26968;42.686;23.352;2023-02-23T10:54:55;95067.16;;;22.32;28.46
41234;BME280;26968;42.686;23.352;2023-02-23T10:57:32;95044.31;;;22.14;28.42
41234;BME280;26968;42.686;23.352;2023-02-23T11:03:00;94859.38;;;20.79;28.72
41234;BME280;26968;42.686;23.352;2023-02-23T11:05:35;95093.34;;;22.63;28.14
41234;BME280;26968;42.686;23.352;2023-02-23T11:08:31;95027.59;;;22.24;28.11
41234;BME280;26968;42.686;23.352;2023-02-23T11:14:00;95065.28;;;21.74;28.38
41234;BME280;26968;42.686;23.352;2023-02-23T11:16:40;95034.03;;;21.29;28.93
41234;BME280;26968;42.686;23.352;2023-02-23T11:19:20;94989.00;;;21.45;28.30
41234;BME280;26968;42.686;23.352;2023-02-23T11:21:51;95074.97;;;22.38;28.37
41234;BME280;26968;42.686;23.352;2023-02-23T11:24:27;95036.13;;;21.95;27.94
41234;BME280;26968;42.686;23.352;2023-02-23T11:26:59;95058.78;;;22.06;28.42
41234;BME280;26968;42.686;23.352;2023-02-23T11:29:38;95049.03;;;22.02;27.91
41234;BME280;26968;42.686;23.352;2023-02-23T11:32:15;94925.19;;;21.37;28.28
41234;BME280;26968;42.686;23.352;2023-02-23T11:34:42;94992.94;;;21.64;28.23
41234;BME280;26968;42.686;23.352;2023-02-23T11:39:59;95051.56;;;22.10;27.60
41234;BME280;26968;42.686;23.352;2023-02-23T11:42:27;95001.88;;;21.83;27.30
41234;BME280;26968;42.686;23.352;2023-02-23T11:45:14;94994.53;;;21.37;27.83
41234;BME280;26968;42.686;23.352;2023-02-23T11:47:47;95051.53;;;21.63;28.25
41234;BME280;26968;42.686;23.352;2023-02-23T11:50:31;94988.47;;;21.12;28.44
41234;BME280;26968;42.686;23.352;2023-02-23T11:53:04;95048.56;;;21.68;28.17
41234;BME280;26968;42.686;23.352;2023-02-23T11:55:32;94985.44;;;21.41;28.66
41234;BME280;26968;42.686;23.352;2023-02-23T11:58:28;95039.00;;;21.86;28.95
41234;BME280;26968;42.686;23.352;2023-02-23T12:01:05;95000.13;;;21.44;29.27
41234;BME280;26968;42.686;23.352;2023-02-23T12:03:44;95006.56;;;21.39;28.68
41234;BME280;26968;42.686;23.352;2023-02-23T12:06:24;95039.75;;;21.55;28.26
41234;BME280;26968;42.686;23.352;2023-02-23T12:08:56;94918.81;;;20.42;29.00
41234;BME280;26968;42.686;23.352;2023-02-23T12:11:29;95036.63;;;20.98;29.13
41234;BME280;26968;42.686;23.352;2023-02-23T12:14:21;94959.03;;;20.63;29.13
41234;BME280;26968;42.686;23.352;2023-02-23T12:16:56;95032.78;;;20.99;29.46
41234;BME280;26968;42.686;23.352;2023-02-23T12:19:27;94969.28;;;20.46;29.38
41234;BME280;26968;42.686;23.352;2023-02-23T12:22:03;94933.00;;;20.55;28.78
41234;BME280;26968;42.686;23.352;2023-02-23T12:27:20;95033.59;;;20.59;28.62
41234;BME280;26968;42.686;23.352;2023-02-23T12:30:19;95021.59;;;20.20;29.26
41234;BME280;26968;42.686;23.352;2023-02-23T12:32:56;94926.19;;;19.57;29.14
41234;BME280;26968;42.686;23.352;2023-02-23T12:41:09;94960.09;;;19.37;31.56
41234;BME280;26968;42.686;23.352;2023-02-23T12:43:41;94993.53;;;19.48;32.17
41234;BME280;26968;42.686;23.352;2023-02-23T12:46:23;94980.44;;;19.14;32.63
41234;BME280;26968;42.686;23.352;2023-02-23T12:54:33;95006.28;;;19.06;32.60
41234;BME280;26968;42.686;23.352;2023-02-23T13:05:45;94880.69;;;18.08;33.77
41234;BME280;26968;42.686;23.352;2023-02-23T13:08:28;95011.03;;;19.01;33.60
41234;BME280;26968;42.686;23.352;2023-02-23T13:13:34;94942.38;;;18.37;33.82
41234;BME280;26968;42.686;23.352;2023-02-23T13:22:48;95007.09;;;18.65;33.87
41234;BME280;26968;42.686;23.352;2023-02-23T13:24:46;94978.38;;;18.36;34.15
41234;BME280;26968;42.686;23.352;2023-02-23T13:27:39;95002.91;;;18.76;34.40
41234;BME280;26968;42.686;23.352;2023-02-23T13:30:10;94936.59;;;18.06;34.11
41234;BME280;26968;42.686;23.352;2023-02-23T13:32:36;94988.00;;;18.37;34.22
41234;BME280;26968;42.686;23.352;2023-02-23T13:35:04;95001.38;;;18.46;34.72
41234;BME280;26968;42.686;23.352;2023-02-23T13:45:52;94995.59;;;18.35;34.22
41234;BME280;26968;42.686;23.352;2023-02-23T13:51:40;94964.59;;;17.96;34.61
41234;BME280;26968;42.686;23.352;2023-02-23T13:57:10;95007.03;;;17.94;35.02
41234;BME280;26968;42.686;23.352;2023-02-23T13:59:40;94964.06;;;17.73;34.68
41234;BME280;26968;42.686;23.352;2023-02-23T14:02:24;94945.25;;;17.44;34.59
41234;BME280;26968;42.686;23.352;2023-02-23T14:07:46;94946.38;;;17.34;34.94
41234;BME280;26968;42.686;23.352;2023-02-23T14:10:40;94992.81;;;17.64;34.83
41234;BME280;26968;42.686;23.352;2023-02-23T14:16:16;95010.72;;;17.34;36.26
41234;BME280;26968;42.686;23.352;2023-02-23T14:19:05;95013.72;;;17.33;35.84
41234;BME280;26968;42.686;23.352;2023-02-23T14:21:40;94992.38;;;16.73;38.30
41234;BME280;26968;42.686;23.352;2023-02-23T14:24:16;95009.25;;;16.73;39.07
41234;BME280;26968;42.686;23.352;2023-02-23T14:26:44;95014.56;;;16.47;40.38
41234;BME280;26968;42.686;23.352;2023-02-23T14:29:28;94984.13;;;16.17;40.76
41234;BME280;26968;42.686;23.352;2023-02-23T14:32:02;95007.13;;;16.27;41.10
41234;BME280;26968;42.686;23.352;2023-02-23T14:34:49;95008.50;;;15.99;41.95
41234;BME280;26968;42.686;23.352;2023-02-23T14:37:28;94957.16;;;15.79;41.54
41234;BME280;26968;42.686;23.352;2023-02-23T14:40:12;95006.19;;;16.14;41.85
41234;BME280;26968;42.686;23.352;2023-02-23T14:42:39;95013.69;;;16.04;41.91
41234;BME280;26968;42.686;23.352;2023-02-23T14:45:26;94939.28;;;15.40;42.18
41234;BME280;26968;42.686;23.352;2023-02-23T14:48:12;94961.56;;;15.36;42.45
41234;BME280;26968;42.686;23.352;2023-02-23T14:50:40;94958.59;;;15.37;42.70
41234;BME280;26968;42.686;23.352;2023-02-23T14:53:12;95015.03;;;15.75;42.34
41234;BME280;26968;42.686;23.352;2023-02-23T14:55:42;95017.91;;;15.48;42.59
41234;BME280;26968;42.686;23.352;2023-02-23T14:58:26;95020.34;;;15.36;43.23
41234;BME280;26968;42.686;23.352;2023-02-23T15:00:53;94978.56;;;15.09;42.95
41234;BME280;26968;42.686;23.352;2023-02-23T15:03:18;94964.97;;;14.97;42.84
41234;BME280;26968;42.686;23.352;2023-02-23T15:05:56;94977.50;;;15.10;42.63
41234;BME280;26968;42.686;23.352;2023-02-23T15:08:24;94989.25;;;15.09;43.11
41234;BME280;26968;42.686;23.352;2023-02-23T15:13:30;95036.34;;;15.05;43.59
41234;BME280;26968;42.686;23.352;2023-02-23T15:16:00;94984.06;;;14.59;43.20
41234;BME280;26968;42.686;23.352;2023-02-23T15:18:35;94944.22;;;14.27;43.19
41234;BME280;26968;42.686;23.352;2023-02-23T15:21:10;95018.94;;;14.63;43.63
41234;BME280;26968;42.686;23.352;2023-02-23T15:23:36;95022.22;;;14.60;43.78
41234;BME280;26968;42.686;23.352;2023-02-23T15:26:26;95020.38;;;14.47;43.87
41234;BME280;26968;42.686;23.352;2023-02-23T15:29:22;95060.91;;;14.49;44.13
41234;BME280;26968;42.686;23.352;2023-02-23T15:31:49;95062.44;;;14.50;44.39
41234;BME280;26968;42.686;23.352;2023-02-23T15:34:28;94998.63;;;13.90;44.92